Time;durP1;ratioP1;P1;durP2;ratioP2;P2;SDS_P1;SDS_P2;PMS_P1;PMS_P2;Temp;Humidity;BMP_temperature;BMP_pressure;BME280_temperature;BME280_humidity;BME280_pressure;Samples;Min_cycle;Max_cycle;Signal;HPM_P1;HPM_P2
2023/10/17 00:01:00;;;;;;;21.65;11.35;;;3.50;99.90;;;;;;5052212;28;20017;-77
2023/10/17 00:03:26;;;;;;;20.67;10.82;;;3.40;99.90;;;;;;5038441;28;20491;-78
2023/10/17 00:05:55;;;;;;;20.45;10.43;;;3.40;99.90;;;;;;5054562;28;20039;-80
2023/10/17 00:08:21;;;;;;;17.40;9.10;;;3.30;99.90;;;;;;5061440;28;20155;-77
2023/10/17 00:10:47;;;;;;;20.98;9.65;;;3.20;99.90;;;;;;5053140;28;20013;-79
2023/10/17 00:15:52;;;;;;;21.02;10.73;;;3.10;99.90;;;;;;5058923;28;20029;-80
2023/10/17 00:18:24;;;;;;;21.92;10.43;;;3.10;99.90;;;;;;5052880;28;20039;-79
2023/10/17 00:20:52;;;;;;;19.10;10.68;;;3.00;99.90;;;;;;5052630;28;20024;-79
2023/10/17 00:23:20;;;;;;;20.38;10.00;;;2.90;99.90;;;;;;5053649;28;20039;-77
2023/10/17 00:25:49;;;;;;;17.90;10.38;;;2.90;99.90;;;;;;5063245;28;20493;-80
2023/10/17 00:28:20;;;;;;;14.98;9.73;;;2.80;99.90;;;;;;5052824;28;20368;-76
2023/10/17 00:30:48;;;;;;;17.67;9.35;;;2.80;99.90;;;;;;5053017;28;20021;-80
2023/10/17 00:33:20;;;;;;;18.08;9.90;;;2.70;99.90;;;;;;5055768;28;20112;-76
2023/10/17 00:35:47;;;;;;;24.88;9.73;;;2.70;99.90;;;;;;5053170;28;20021;-80
2023/10/17 00:38:16;;;;;;;17.42;9.00;;;2.70;99.90;;;;;;5052652;28;20021;-80
2023/10/17 00:40:51;;;;;;;17.17;8.63;;;2.60;99.90;;;;;;5052851;28;20108;-77
2023/10/17 00:43:17;;;;;;;15.18;9.13;;;2.50;99.90;;;;;;5060021;28;20063;-77
2023/10/17 00:45:46;;;;;;;13.23;7.85;;;2.50;99.90;;;;;;5062712;28;20115;-77
2023/10/17 00:48:18;;;;;;;13.50;7.55;;;2.40;99.90;;;;;;5051111;28;20087;-80
2023/10/17 00:50:50;;;;;;;16.23;8.77;;;2.40;99.90;;;;;;5053626;28;20028;-78
2023/10/17 00:53:16;;;;;;;29.07;10.90;;;2.30;99.90;;;;;;5051437;28;20092;-76
2023/10/17 00:56:06;;;;;;;15.00;8.90;;;2.30;99.90;;;;;;5051312;28;20028;-79
2023/10/17 00:58:29;;;;;;;13.73;8.43;;;2.30;99.90;;;;;;5052269;28;20070;-80
2023/10/17 01:01:00;;;;;;;17.02;8.98;;;2.20;99.90;;;;;;5053748;28;20039;-77
2023/10/17 01:03:29;;;;;;;15.18;8.20;;;2.10;99.90;;;;;;5065457;28;20074;-78
2023/10/17 01:06:13;;;;;;;14.90;8.55;;;2.00;99.90;;;;;;5052445;28;20013;-78
2023/10/17 01:08:39;;;;;;;15.63;8.20;;;2.00;99.90;;;;;;5051736;28;20025;-79
2023/10/17 01:13:52;;;;;;;17.20;7.45;;;1.90;99.90;;;;;;5054111;28;20146;-77
2023/10/17 01:16:20;;;;;;;17.60;9.02;;;1.80;99.90;;;;;;5060646;28;20021;-79
2023/10/17 01:18:47;;;;;;;15.30;8.27;;;1.80;99.90;;;;;;5050830;28;20016;-79
2023/10/17 01:21:20;;;;;;;12.93;7.78;;;1.70;99.90;;;;;;5057912;28;20067;-79
2023/10/17 01:23:50;;;;;;;17.70;9.02;;;1.60;99.90;;;;;;5052300;28;20033;-77
2023/10/17 01:26:23;;;;;;;14.27;9.10;;;1.60;99.90;;;;;;5051182;28;20479;-79
2023/10/17 01:28:51;;;;;;;17.15;9.73;;;1.50;99.90;;;;;;5050934;28;20020;-79
2023/10/17 01:31:23;;;;;;;20.00;9.55;;;1.50;99.90;;;;;;5051034;28;20059;-79
2023/10/17 01:33:59;;;;;;;13.73;8.50;;;1.40;99.90;;;;;;5047495;28;20028;-77
2023/10/17 01:36:25;;;;;;;17.10;9.15;;;1.30;99.90;;;;;;5054893;28;20032;-80
2023/10/17 01:38:52;;;;;;;21.83;10.38;;;1.40;99.90;;;;;;5056325;28;20025;-76
2023/10/17 01:41:19;;;;;;;15.57;8.35;;;1.40;99.90;;;;;;5055358;28;20433;-76
2023/10/17 01:43:48;;;;;;;14.05;7.28;;;1.30;99.90;;;;;;5062284;28;20037;-79
2023/10/17 01:46:28;;;;;;;15.48;8.27;;;1.30;99.90;;;;;;5054427;28;20044;-76
2023/10/17 01:48:54;;;;;;;15.90;7.65;;;1.30;99.90;;;;;;5056233;28;20474;-79
2023/10/17 01:51:22;;;;;;;12.77;7.85;;;1.20;99.90;;;;;;5055153;28;20516;-80
2023/10/17 01:53:51;;;;;;;14.60;8.18;;;1.20;99.90;;;;;;5054559;28;20017;-76
2023/10/17 01:56:20;;;;;;;16.00;8.35;;;1.20;99.90;;;;;;5054349;28;20028;-76
2023/10/17 01:58:50;;;;;;;16.73;8.98;;;1.20;99.90;;;;;;5055701;28;20031;-77
2023/10/17 02:01:29;;;;;;;11.55;7.28;;;1.10;99.90;;;;;;5063289;28;20020;-79
2023/10/17 02:04:30;;;;;;;13.50;7.78;;;1.10;99.90;;;;;;5055024;28;20086;-79
2023/10/17 02:06:47;;;;;;;13.25;8.13;;;1.10;99.90;;;;;;5055396;28;20029;-76
2023/10/17 02:12:00;;;;;;;15.43;7.65;;;1.00;99.90;;;;;;5060603;28;20040;-77
2023/10/17 02:14:26;;;;;;;14.32;8.00;;;1.00;99.90;;;;;;5055563;28;20028;-76
2023/10/17 02:16:52;;;;;;;15.18;8.73;;;1.00;99.90;;;;;;5054046;28;20021;-80
2023/10/17 02:19:19;;;;;;;15.48;8.40;;;1.00;99.90;;;;;;5059773;28;20425;-77
2023/10/17 02:21:49;;;;;;;14.73;8.70;;;0.90;99.90;;;;;;5055314;28;20027;-77
2023/10/17 02:24:19;;;;;;;16.92;8.70;;;0.90;99.90;;;;;;5055292;28;20398;-79
2023/10/17 02:27:08;;;;;;;15.02;7.95;;;0.90;99.90;;;;;;5055142;28;20029;-79
2023/10/17 02:29:46;;;;;;;14.48;8.52;;;0.80;99.90;;;;;;5054319;28;20094;-77
2023/10/17 02:32:12;;;;;;;17.98;8.43;;;0.80;99.90;;;;;;5066563;28;20351;-76
2023/10/17 02:34:38;;;;;;;14.63;8.70;;;0.80;99.90;;;;;;5045552;28;20025;-79
2023/10/17 02:37:05;;;;;;;15.05;8.40;;;0.80;99.90;;;;;;5047250;28;20072;-79
2023/10/17 02:39:31;;;;;;;16.55;7.85;;;0.80;99.90;;;;;;5054666;28;20060;-79
2023/10/17 02:42:09;;;;;;;17.35;8.15;;;0.70;99.90;;;;;;5055856;28;20063;-78
2023/10/17 02:44:39;;;;;;;16.50;8.27;;;0.70;99.90;;;;;;5040979;28;20131;-77
2023/10/17 02:47:10;;;;;;;15.43;7.97;;;0.70;99.90;;;;;;5054516;28;20082;-80
2023/10/17 02:49:37;;;;;;;13.52;7.68;;;0.70;99.90;;;;;;5055059;28;20025;-79
2023/10/17 02:52:04;;;;;;;16.50;8.20;;;0.70;99.90;;;;;;5062675;28;20024;-77
2023/10/17 02:54:34;;;;;;;21.35;12.10;;;0.60;99.90;;;;;;5040839;28;20101;-77
2023/10/17 02:56:59;;;;;;;20.50;13.20;;;0.60;99.90;;;;;;5053381;28;20403;-77
2023/10/17 02:59:27;;;;;;;17.95;10.45;;;0.60;99.90;;;;;;5054592;28;20029;-79
2023/10/17 03:01:53;;;;;;;16.45;9.15;;;0.50;99.90;;;;;;5054545;28;20569;-79
2023/10/17 03:04:23;;;;;;;16.73;9.40;;;0.50;99.90;;;;;;5055986;28;20133;-78
2023/10/17 03:06:53;;;;;;;17.20;9.88;;;0.50;99.90;;;;;;5062512;28;20021;-77
2023/10/17 03:12:17;;;;;;;21.60;11.45;;;0.50;99.90;;;;;;5054715;28;20494;-77
2023/10/17 03:15:18;;;;;;;21.58;10.43;;;0.50;99.90;;;;;;5053877;28;20493;-77
2023/10/17 03:17:27;;;;;;;16.98;10.20;;;0.50;99.90;;;;;;5048606;28;20398;-77
2023/10/17 03:19:52;;;;;;;16.70;8.98;;;0.50;99.90;;;;;;5054347;28;20021;-79
2023/10/17 03:22:27;;;;;;;15.82;8.70;;;0.50;99.90;;;;;;5054435;28;20051;-78
2023/10/17 03:25:09;;;;;;;17.17;9.30;;;0.50;99.90;;;;;;5052858;28;20403;-77
2023/10/17 03:27:37;;;;;;;18.45;9.48;;;0.50;99.90;;;;;;5054065;28;20021;-79
2023/10/17 03:30:11;;;;;;;17.17;9.65;;;0.50;99.90;;;;;;5054101;28;20025;-77
2023/10/17 03:32:53;;;;;;;21.88;11.32;;;0.60;99.90;;;;;;5052744;28;20108;-77
2023/10/17 03:35:22;;;;;;;19.05;10.40;;;0.60;99.90;;;;;;5062251;28;20070;-77
2023/10/17 03:37:48;;;;;;;16.35;10.10;;;0.60;99.90;;;;;;5052821;28;20127;-77
2023/10/17 03:40:25;;;;;;;17.67;10.68;;;0.60;99.90;;;;;;5061000;28;20021;-79
2023/10/17 03:42:54;;;;;;;17.85;10.43;;;0.60;99.90;;;;;;5053757;28;20017;-77
2023/10/17 03:45:27;;;;;;;17.90;10.45;;;0.60;99.90;;;;;;5052332;28;20082;-78
2023/10/17 03:47:53;;;;;;;20.42;10.35;;;0.60;99.90;;;;;;5052296;28;20060;-79
2023/10/17 03:50:34;;;;;;;19.45;12.02;;;0.60;99.90;;;;;;5054444;28;20029;-79
2023/10/17 03:53:07;;;;;;;18.13;11.27;;;0.60;99.90;;;;;;5053795;28;20035;-77
2023/10/17 03:55:35;;;;;;;;;;;0.50;99.90;;;;;;5041564;28;20104;-79
2023/10/17 03:58:02;;;;;;;23.70;11.13;;;0.50;99.90;;;;;;5060083;28;19952;-77
2023/10/17 04:00:33;;;;;;;26.95;11.27;;;0.50;99.90;;;;;;5053902;28;20040;-77
2023/10/17 04:03:00;;;;;;;26.70;13.15;;;0.50;99.90;;;;;;5052086;28;20029;-78
2023/10/17 04:05:28;;;;;;;26.05;13.30;;;0.50;99.90;;;;;;5055929;28;20025;-79
2023/10/17 04:07:54;;;;;;;29.00;13.48;;;0.50;99.90;;;;;;5068157;28;20024;-76
2023/10/17 04:10:20;;;;;;;29.80;14.13;;;0.50;99.90;;;;;;5053339;28;20020;-79
2023/10/17 04:12:58;;;;;;;25.15;14.10;;;0.50;99.90;;;;;;5053690;28;20127;-77
2023/10/17 04:15:25;;;;;;;29.02;13.40;;;0.50;99.90;;;;;;5053332;28;20105;-77
2023/10/17 04:17:50;;;;;;;24.98;12.20;;;0.50;99.90;;;;;;5053113;28;20500;-77
2023/10/17 04:20:16;;;;;;;23.15;12.13;;;0.40;99.90;;;;;;5053193;28;20017;-76
2023/10/17 04:22:46;;;;;;;24.27;10.98;;;0.40;99.90;;;;;;5052928;28;20052;-79
2023/10/17 04:27:59;;;;;;;23.50;11.32;;;0.40;99.90;;;;;;5053192;28;20039;-77
2023/10/17 04:30:46;;;;;;;20.05;10.30;;;0.40;99.90;;;;;;5051999;28;20021;-76
2023/10/17 04:33:19;;;;;;;21.27;11.70;;;0.30;99.90;;;;;;5057166;28;20040;-78
2023/10/17 04:35:53;;;;;;;21.17;12.38;;;0.20;99.90;;;;;;5060461;28;20024;-78
2023/10/17 04:38:19;;;;;;;22.52;11.40;;;0.20;99.90;;;;;;5051646;28;20048;-77
2023/10/17 04:41:17;;;;;;;24.20;11.88;;;0.20;99.90;;;;;;5052676;28;20017;-78
2023/10/17 04:43:45;;;;;;;22.92;11.48;;;0.20;99.90;;;;;;5061063;28;20083;-77
2023/10/17 04:46:11;;;;;;;25.17;12.55;;;0.20;99.90;;;;;;5059008;28;20039;-77
2023/10/17 04:48:40;;;;;;;21.75;10.57;;;0.10;99.90;;;;;;5037173;28;20053;-79
2023/10/17 04:51:31;;;;;;;21.23;11.20;;;0.20;99.90;;;;;;5060734;28;20059;-78
2023/10/17 04:53:55;;;;;;;22.90;11.32;;;0.10;99.90;;;;;;5052080;28;20387;-79
2023/10/17 04:56:24;;;;;;;24.30;11.38;;;0.10;99.90;;;;;;5052445;28;20025;-77
2023/10/17 04:58:56;;;;;;;25.13;12.43;;;0.10;99.90;;;;;;5051735;28;20036;-77
2023/10/17 05:03:59;;;;;;;22.10;11.32;;;0.10;99.90;;;;;;5043038;28;20128;-77
2023/10/17 05:07:06;;;;;;;23.85;11.50;;;0.20;99.90;;;;;;5050713;28;20103;-77
2023/10/17 06:17:49;;;;;;;41.30;19.77;;;0.70;99.90;;;;;;5049210;28;20100;-78
2023/10/17 06:20:19;;;;;;;40.97;19.85;;;0.80;99.90;;;;;;5052650;28;20460;-77
2023/10/17 06:28:27;;;;;;;58.70;28.40;;;1.10;99.90;;;;;;5055201;28;20032;-77
2023/10/17 06:33:37;;;;;;;68.25;36.85;;;1.30;99.90;;;;;;5054722;28;20036;-77
2023/10/17 06:36:13;;;;;;;76.05;39.70;;;1.40;99.90;;;;;;5045383;28;20021;-78
2023/10/17 06:38:49;;;;;;;86.95;46.83;;;1.50;99.90;;;;;;5047164;28;20025;-77
2023/10/17 06:41:16;;;;;;;88.25;46.13;;;1.70;99.90;;;;;;5056021;28;20024;-78
2023/10/17 06:43:46;;;;;;;104.15;53.30;;;1.80;99.90;;;;;;5061581;28;20040;-79
2023/10/17 06:46:14;;;;;;;102.05;57.05;;;2.00;99.90;;;;;;5054871;28;20021;-77
2023/10/17 06:48:49;;;;;;;84.18;47.95;;;2.10;99.90;;;;;;5054747;28;20031;-77
2023/10/17 06:53:47;;;;;;;95.07;48.25;;;2.30;99.90;;;;;;5055044;28;20082;-79
2023/10/17 06:56:13;;;;;;;106.15;55.08;;;2.40;99.90;;;;;;5054950;28;20043;-78
2023/10/17 06:58:39;;;;;;;109.03;56.38;;;2.50;99.90;;;;;;5053332;28;20012;-77
2023/10/17 07:01:05;;;;;;;113.18;56.58;;;2.60;99.90;;;;;;5058401;28;20021;-79
2023/10/17 07:03:37;;;;;;;110.97;58.63;;;2.70;99.90;;;;;;5054563;28;20037;-79
2023/10/17 07:06:16;;;;;;;127.10;61.58;;;2.80;99.90;;;;;;5054341;28;20033;-79
2023/10/17 07:08:45;;;;;;;118.97;55.85;;;3.00;99.90;;;;;;5053547;28;20281;-77
2023/10/17 07:13:55;;;;;;;84.70;41.60;;;3.30;99.90;;;;;;5054474;28;20036;-77
2023/10/17 07:16:33;;;;;;;58.20;28.50;;;3.50;99.90;;;;;;5054160;28;20021;-79
2023/10/17 07:24:37;;;;;;;53.08;26.45;;;4.00;99.90;;;;;;5055557;28;20426;-79
2023/10/17 07:27:11;;;;;;;53.92;26.67;;;4.10;99.90;;;;;;5054189;28;20029;-77
2023/10/17 07:29:37;;;;;;;57.90;29.48;;;4.30;99.90;;;;;;5059729;28;20471;-76
2023/10/17 07:32:09;;;;;;;53.15;27.88;;;4.50;99.90;;;;;;5052666;28;20043;-79
2023/10/17 07:34:36;;;;;;;58.87;29.73;;;4.60;99.90;;;;;;5054385;28;20025;-79
2023/10/17 07:37:12;;;;;;;46.63;27.10;;;4.80;99.90;;;;;;5052525;28;20307;-79
2023/10/17 07:39:39;;;;;;;52.22;28.27;;;5.00;99.90;;;;;;5052924;28;20017;-77
2023/10/17 07:42:14;;;;;;;56.58;30.02;;;5.20;99.90;;;;;;5052163;28;20028;-79
2023/10/17 07:44:43;;;;;;;53.33;28.42;;;5.30;99.90;;;;;;5059175;28;20515;-76
2023/10/17 07:47:09;;;;;;;56.85;29.55;;;5.40;99.90;;;;;;5053591;28;20041;-79
2023/10/17 07:49:41;;;;;;;51.22;30.58;;;5.50;99.90;;;;;;5053871;28;20075;-76
2023/10/17 07:52:17;;;;;;;47.00;27.85;;;5.70;99.90;;;;;;5051172;28;20029;-80
2023/10/17 07:54:55;;;;;;;40.65;22.92;;;5.80;99.90;;;;;;5052411;28;20363;-77
2023/10/17 07:57:36;;;;;;;41.90;24.25;;;5.90;99.90;;;;;;5053548;28;20483;-80
2023/10/17 08:00:15;;;;;;;45.83;24.35;;;6.10;99.90;;;;;;5051042;28;20021;-80
2023/10/17 08:02:41;;;;;;;41.13;24.20;;;6.20;99.90;;;;;;5053626;28;20025;-77
2023/10/17 08:05:17;;;;;;;44.40;23.52;;;6.30;99.90;;;;;;5051935;28;20453;-80
2023/10/17 08:07:46;;;;;;;40.03;23.25;;;6.40;99.90;;;;;;5061978;28;20095;-77
2023/10/17 08:10:20;;;;;;;45.92;25.15;;;6.50;99.90;;;;;;5056737;28;20025;-78
2023/10/17 08:12:51;;;;;;;40.72;20.90;;;6.60;99.90;;;;;;5053143;28;20013;-78
2023/10/17 08:15:22;;;;;;;33.25;19.27;;;6.70;99.90;;;;;;5053310;28;20023;-80
2023/10/17 08:17:49;;;;;;;28.38;16.08;;;6.80;99.90;;;;;;5053184;28;20433;-79
2023/10/17 08:22:55;;;;;;;26.23;13.52;;;7.00;99.90;;;;;;5053263;28;20075;-77
2023/10/17 08:25:30;;;;;;;25.25;11.63;;;7.10;99.90;;;;;;5053023;28;20037;-77
2023/10/17 08:27:57;;;;;;;22.08;12.25;;;7.20;99.90;;;;;;5053599;28;20540;-77
2023/10/17 08:30:23;;;;;;;22.98;12.30;;;7.30;99.90;;;;;;5059202;28;20498;-80
2023/10/17 08:32:55;;;;;;;21.42;11.68;;;7.30;99.90;;;;;;5048166;28;20053;-78
2023/10/17 08:35:28;;;;;;;24.33;11.70;;;7.50;99.90;;;;;;5047720;28;20025;-80
2023/10/17 08:37:55;;;;;;;20.40;13.05;;;7.50;99.90;;;;;;5052919;28;20471;-77
2023/10/17 08:40:29;;;;;;;19.00;9.85;;;7.60;99.90;;;;;;5052648;28;20467;-77
2023/10/17 08:42:56;;;;;;;16.90;9.15;;;7.70;99.90;;;;;;5052287;28;20021;-79
2023/10/17 08:45:26;;;;;;;15.95;8.57;;;7.80;99.90;;;;;;5051320;28;20031;-80
2023/10/17 08:47:59;;;;;;;18.73;9.77;;;7.90;99.90;;;;;;5058496;28;20098;-79
2023/10/17 08:50:25;;;;;;;21.85;9.98;;;7.90;99.90;;;;;;5051212;28;20471;-81
2023/10/17 08:52:51;;;;;;;22.23;11.20;;;8.00;99.90;;;;;;5051501;28;20029;-77
2023/10/17 08:55:20;;;;;;;17.85;9.73;;;8.20;99.90;;;;;;5051404;28;20021;-78
2023/10/17 08:57:46;;;;;;;11.68;6.53;;;8.20;99.90;;;;;;5051247;28;20029;-77
2023/10/17 09:02:48;;;;;;;20.75;9.55;;;8.20;99.40;;;;;;5060366;28;20024;-80
2023/10/17 09:05:18;;;;;;;12.57;5.75;;;8.30;99.90;;;;;;5037613;28;20078;-80
2023/10/17 09:07:48;;;;;;;13.98;7.63;;;8.40;94.70;;;;;;5051761;28;20025;-80
2023/10/17 09:10:20;;;;;;;8.18;5.40;;;8.50;95.80;;;;;;5051734;28;20064;-77
2023/10/17 09:18:42;;;;;;;14.20;7.28;;;8.30;84.50;;;;;;5050602;28;20035;-80
2023/10/17 09:21:08;;;;;;;12.45;6.30;;;8.30;85.60;;;;;;5051039;28;20013;-78
2023/10/17 09:23:38;;;;;;;8.30;5.57;;;8.30;85.40;;;;;;5051149;28;20041;-80
2023/10/17 09:26:07;;;;;;;8.57;5.35;;;8.40;85.10;;;;;;5053036;28;20438;-77
2023/10/17 09:28:35;;;;;;;12.57;5.13;;;8.40;81.90;;;;;;5052321;28;20037;-78
2023/10/17 09:31:07;;;;;;;12.35;5.47;;;8.60;83.10;;;;;;5056143;28;20047;-78
2023/10/17 09:33:44;;;;;;;11.07;4.75;;;8.70;85.00;;;;;;5054541;28;20025;-80
2023/10/17 09:36:11;;;;;;;8.63;4.95;;;8.90;83.40;;;;;;5054976;28;20025;-77
2023/10/17 09:38:43;;;;;;;10.55;4.93;;;9.00;83.00;;;;;;5050218;28;20029;-80
2023/10/17 09:41:17;;;;;;;5.25;3.72;;;9.10;80.00;;;;;;5057998;28;20029;-77
2023/10/17 09:43:45;;;;;;;7.55;3.97;;;9.20;75.60;;;;;;5054907;28;20494;-77
2023/10/17 09:46:12;;;;;;;9.77;4.40;;;9.40;73.90;;;;;;5052332;28;20021;-80
2023/10/17 09:48:46;;;;;;;10.60;5.45;;;9.50;74.40;;;;;;5050689;28;20089;-80
2023/10/17 09:51:24;;;;;;;9.85;5.47;;;9.60;75.10;;;;;;5050838;28;20607;-80
2023/10/17 09:53:54;;;;;;;12.38;5.80;;;9.80;75.90;;;;;;5063674;28;20021;-77
2023/10/17 09:56:42;;;;;;;10.48;4.57;;;9.90;72.30;;;;;;5060361;28;20056;-77
2023/10/17 09:59:16;;;;;;;8.80;4.50;;;10.00;72.70;;;;;;5054229;28;20029;-77
2023/10/17 10:01:49;;;;;;;10.52;5.55;;;10.10;71.90;;;;;;5054434;28;20025;-81
2023/10/17 10:04:17;;;;;;;7.97;4.40;;;10.30;74.70;;;;;;5057150;28;20505;-80
2023/10/17 10:06:43;;;;;;;6.72;4.20;;;10.40;73.80;;;;;;5054487;28;20021;-80
2023/10/17 10:09:14;;;;;;;7.78;4.03;;;10.50;72.20;;;;;;5054369;28;20032;-81
2023/10/17 10:11:51;;;;;;;10.45;5.80;;;10.50;70.30;;;;;;5053754;28;20028;-78
2023/10/17 10:14:23;;;;;;;9.43;4.18;;;10.50;71.10;;;;;;5055853;28;20029;-81
2023/10/17 10:16:59;;;;;;;7.53;3.60;;;10.50;71.40;;;;;;5062521;28;20020;-77
2023/10/17 10:19:44;;;;;;;7.15;2.75;;;10.30;68.70;;;;;;5057607;28;20045;-81
2023/10/17 10:22:14;;;;;;;3.97;2.40;;;10.20;67.20;;;;;;5055318;28;20324;-77
2023/10/17 10:24:42;;;;;;;4.22;2.90;;;10.20;65.50;;;;;;5046208;28;20047;-77
2023/10/17 10:27:14;;;;;;;6.03;3.08;;;10.30;65.30;;;;;;5051978;28;20052;-77
2023/10/17 10:29:40;;;;;;;7.95;3.47;;;10.30;65.50;;;;;;5045264;28;20048;-77
2023/10/17 10:32:40;;;;;;;8.00;2.55;;;10.40;65.80;;;;;;5052226;28;20036;-77
2023/10/17 10:35:06;;;;;;;5.00;3.13;;;10.50;65.10;;;;;;5051379;28;20047;-78
2023/10/17 10:37:54;;;;;;;3.53;2.25;;;10.60;63.50;;;;;;5053002;28;20087;-77
2023/10/17 10:40:30;;;;;;;2.78;1.85;;;10.60;61.50;;;;;;5046535;28;20037;-77
2023/10/17 10:43:01;;;;;;;2.20;1.73;;;10.70;60.50;;;;;;5043213;28;20033;-77
2023/10/17 10:45:35;;;;;;;2.55;1.58;;;10.60;58.40;;;;;;5054001;28;20051;-76
2023/10/17 10:48:04;;;;;;;7.95;2.20;;;10.60;58.10;;;;;;5051770;28;20061;-77
2023/10/17 10:50:34;;;;;;;4.25;1.92;;;10.70;59.30;;;;;;5051577;28;20478;-77
2023/10/17 10:53:18;;;;;;;3.05;2.30;;;10.70;57.00;;;;;;5058782;28;20543;-76
2023/10/17 10:55:51;;;;;;;3.70;1.90;;;10.70;56.20;;;;;;5060630;28;20041;-76
2023/10/17 10:58:18;;;;;;;2.08;1.30;;;10.50;56.70;;;;;;5053360;28;20019;-76
2023/10/17 11:00:44;;;;;;;3.05;1.63;;;10.60;57.60;;;;;;5052092;28;20029;-76
2023/10/17 11:03:10;;;;;;;2.10;1.65;;;10.50;59.30;;;;;;5051414;28;20072;-76
2023/10/17 11:05:55;;;;;;;3.65;1.50;;;10.40;60.50;;;;;;5053024;28;20398;-75
2023/10/17 11:08:33;;;;;;;2.45;2.08;;;10.30;60.10;;;;;;5051858;28;20021;-75
2023/10/17 11:11:00;;;;;;;1.63;1.50;;;10.30;60.10;;;;;;5052683;28;20099;-73
2023/10/17 11:13:39;;;;;;;2.47;1.80;;;10.20;60.00;;;;;;5042727;28;20025;-73
2023/10/17 11:16:06;;;;;;;3.80;2.47;;;10.20;61.20;;;;;;5043922;28;20033;-78
2023/10/17 11:18:38;;;;;;;6.47;2.60;;;10.00;62.20;;;;;;5052293;28;20384;-78
2023/10/17 11:21:10;;;;;;;6.60;3.27;;;10.00;63.50;;;;;;5049009;28;20041;-78
2023/10/17 11:23:46;;;;;;;4.85;3.20;;;9.90;63.40;;;;;;5054236;28;20032;-78
2023/10/17 11:26:12;;;;;;;6.43;3.30;;;9.80;64.00;;;;;;5053872;28;20115;-79
2023/10/17 11:28:46;;;;;;;7.13;2.75;;;9.90;65.60;;;;;;5051670;28;20013;-79
2023/10/17 11:31:22;;;;;;;7.32;2.90;;;9.90;66.70;;;;;;5052245;28;20043;-79
2023/10/17 11:33:55;;;;;;;5.53;3.08;;;9.90;66.80;;;;;;5050986;28;20032;-79
2023/10/17 11:36:22;;;;;;;4.30;2.40;;;9.80;66.10;;;;;;5051335;28;20501;-79
2023/10/17 11:38:58;;;;;;;3.00;2.40;;;9.80;64.10;;;;;;5052285;28;20378;-79
2023/10/17 11:41:39;;;;;;;5.78;2.85;;;10.10;65.80;;;;;;5050621;28;20536;-80
2023/10/17 11:44:06;;;;;;;6.55;2.72;;;10.10;64.30;;;;;;5051757;28;20045;-80
2023/10/17 11:46:38;;;;;;;5.20;2.80;;;10.00;63.10;;;;;;5061719;28;20059;-80
2023/10/17 11:49:30;;;;;;;4.97;2.00;;;10.10;64.40;;;;;;5047733;28;20032;-80
2023/10/17 11:52:00;;;;;;;5.07;2.30;;;10.10;62.50;;;;;;5050417;28;20033;-80
2023/10/17 11:54:26;;;;;;;2.63;2.08;;;10.10;62.80;;;;;;5051163;28;20032;-80
2023/10/17 11:56:53;;;;;;;8.82;1.95;;;10.20;64.30;;;;;;5051365;28;20104;-80
2023/10/17 11:59:18;;;;;;;4.57;2.42;;;10.20;62.40;;;;;;5050959;28;20036;-80
2023/10/17 12:01:52;;;;;;;6.13;3.00;;;10.20;62.20;;;;;;5048180;28;20425;-80
2023/10/17 12:04:18;;;;;;;5.65;2.42;;;10.30;62.10;;;;;;5045773;28;20368;-80
2023/10/17 12:06:47;;;;;;;4.88;2.28;;;10.30;63.20;;;;;;5041782;28;20029;-81
2023/10/17 12:09:22;;;;;;;4.40;2.53;;;10.30;64.60;;;;;;5050762;28;20795;-80
2023/10/17 12:11:50;;;;;;;3.42;2.28;;;10.20;63.50;;;;;;5045428;28;20361;-80
2023/10/17 12:14:20;;;;;;;5.10;2.72;;;10.30;62.90;;;;;;5043452;28;20104;-79
2023/10/17 12:16:53;;;;;;;3.88;2.63;;;10.30;64.30;;;;;;5046313;28;20029;-80
2023/10/17 12:19:22;;;;;;;4.78;2.67;;;10.20;64.20;;;;;;5043623;28;20013;-80
2023/10/17 12:21:48;;;;;;;3.95;2.63;;;10.10;62.80;;;;;;5040340;28;20475;-79
2023/10/17 12:24:24;;;;;;;4.53;2.55;;;10.10;64.10;;;;;;5051242;28;20135;-75
2023/10/17 12:26:53;;;;;;;4.38;2.47;;;10.00;63.40;;;;;;5045566;28;20352;-75
2023/10/17 12:29:29;;;;;;;3.65;2.70;;;10.00;63.40;;;;;;5054472;28;20020;-75
2023/10/17 12:31:59;;;;;;;4.90;2.45;;;10.10;64.30;;;;;;5050511;28;20159;-75
2023/10/17 12:34:27;;;;;;;3.90;2.83;;;10.10;65.00;;;;;;5046430;28;20017;-77
2023/10/17 12:36:53;;;;;;;3.55;2.33;;;10.10;64.90;;;;;;5050819;28;20123;-76
2023/10/17 12:39:19;;;;;;;4.65;2.17;;;10.10;64.40;;;;;;5051599;28;20075;-76
2023/10/17 12:41:49;;;;;;;4.47;2.40;;;10.00;62.20;;;;;;5052991;28;20453;-76
2023/10/17 12:44:18;;;;;;;7.18;2.60;;;10.00;61.10;;;;;;5051476;28;20032;-76
2023/10/17 12:46:44;;;;;;;3.65;2.60;;;10.10;61.50;;;;;;5050697;28;20094;-76
2023/10/17 12:49:14;;;;;;;5.38;3.20;;;10.00;62.60;;;;;;5039732;28;20017;-76
2023/10/17 12:51:41;;;;;;;3.95;2.80;;;9.90;63.70;;;;;;5049862;28;20025;-76
2023/10/17 12:54:08;;;;;;;5.05;2.40;;;9.90;63.50;;;;;;5051284;28;20027;-76
2023/10/17 12:56:37;;;;;;;4.40;2.50;;;9.90;63.60;;;;;;5056229;28;20036;-80
2023/10/17 12:59:03;;;;;;;2.55;2.10;;;9.90;63.30;;;;;;5050154;28;20025;-80
2023/10/17 13:01:29;;;;;;;3.90;2.13;;;9.90;64.60;;;;;;5043868;28;20076;-82
2023/10/17 13:03:57;;;;;;;4.97;2.75;;;9.90;64.60;;;;;;5045089;28;20029;-82
2023/10/17 13:06:26;;;;;;;4.10;2.05;;;9.90;65.60;;;;;;5046895;28;20037;-80
2023/10/17 13:08:59;;;;;;;4.50;2.53;;;9.80;64.40;;;;;;5050452;28;20123;-81
2023/10/17 13:11:28;;;;;;;4.28;2.22;;;9.80;66.50;;;;;;5051484;28;20082;-81
2023/10/17 13:13:54;;;;;;;4.75;3.05;;;9.70;65.80;;;;;;5053402;28;20127;-81
2023/10/17 13:16:23;;;;;;;8.60;3.38;;;9.70;66.60;;;;;;5049202;28;20385;-81
2023/10/17 13:18:50;;;;;;;4.15;2.80;;;9.70;68.50;;;;;;5047306;28;20490;-81
2023/10/17 13:21:16;;;;;;;5.28;2.90;;;9.60;68.20;;;;;;5048608;28;20036;-81
2023/10/17 13:23:44;;;;;;;7.68;3.13;;;9.60;69.30;;;;;;5051840;28;20513;-76
2023/10/17 13:26:21;;;;;;;6.00;2.95;;;9.50;69.20;;;;;;5049179;28;20029;-76
2023/10/17 13:28:47;;;;;;;5.82;3.10;;;9.40;69.50;;;;;;5052570;28;20025;-76
2023/10/17 13:31:16;;;;;;;7.57;3.70;;;9.40;69.30;;;;;;5054636;28;20593;-75
2023/10/17 13:33:43;;;;;;;7.82;3.10;;;9.40;69.50;;;;;;5042680;28;20029;-80
2023/10/17 13:36:20;;;;;;;6.68;3.13;;;9.30;69.50;;;;;;5058445;28;20032;-80
2023/10/17 13:38:46;;;;;;;5.70;3.35;;;9.30;68.20;;;;;;5050975;28;20429;-80
2023/10/17 13:41:15;;;;;;;9.02;3.72;;;9.30;69.90;;;;;;5050876;28;20390;-79
2023/10/17 13:43:42;;;;;;;10.60;4.50;;;9.30;70.70;;;;;;5043426;28;20541;-80
2023/10/17 13:46:13;;;;;;;8.00;3.42;;;9.30;71.00;;;;;;5048000;28;20029;-79
2023/10/17 13:48:48;;;;;;;6.45;4.28;;;9.20;72.00;;;;;;5045604;28;20398;-80
2023/10/17 13:51:15;;;;;;;6.00;4.55;;;9.20;72.80;;;;;;5044690;28;20025;-80
2023/10/17 13:53:44;;;;;;;6.50;3.90;;;9.20;74.00;;;;;;5048597;28;20021;-80
2023/10/17 13:56:13;;;;;;;6.88;3.40;;;9.20;75.10;;;;;;5043505;28;20029;-80
2023/10/17 13:58:41;;;;;;;8.55;3.15;;;9.20;75.20;;;;;;5046196;28;20104;-79
2023/10/17 14:01:27;;;;;;;13.32;3.40;;;9.20;73.80;;;;;;5040582;28;20128;-80
2023/10/17 14:03:56;;;;;;;7.05;4.10;;;9.10;73.20;;;;;;5049156;28;20064;-81
2023/10/17 14:06:22;;;;;;;7.90;4.28;;;9.20;73.80;;;;;;5052220;28;20118;-79
2023/10/17 14:08:48;;;;;;;12.75;4.80;;;9.10;74.30;;;;;;5050095;28;20029;-82
2023/10/17 14:11:20;;;;;;;5.97;3.90;;;9.20;76.50;;;;;;5052975;28;20043;-82
2023/10/17 14:13:47;;;;;;;9.68;5.28;;;9.10;77.10;;;;;;5044420;28;20086;-80
2023/10/17 14:16:13;;;;;;;5.05;4.55;;;9.20;79.90;;;;;;5051468;28;20041;-80
2023/10/17 14:18:46;;;;;;;13.95;10.10;;;9.00;84.90;;;;;;5054030;28;20033;-80
2023/10/17 14:23:57;;;;;;;9.18;5.72;;;8.80;92.30;;;;;;5052898;28;20043;-82
2023/10/17 14:26:32;;;;;;;11.65;7.38;;;8.80;93.50;;;;;;5051987;28;20434;-81
2023/10/17 14:29:02;;;;;;;14.02;8.05;;;8.80;93.30;;;;;;5052465;28;20153;-80
2023/10/17 14:31:32;;;;;;;13.80;8.70;;;8.70;94.10;;;;;;5053713;28;20082;-80
2023/10/17 14:33:59;;;;;;;11.32;7.82;;;8.70;95.00;;;;;;5052909;28;20044;-80
2023/10/17 14:36:26;;;;;;;9.02;6.70;;;8.70;95.20;;;;;;5051409;28;20470;-80
2023/10/17 14:38:53;;;;;;;13.15;7.72;;;8.70;93.90;;;;;;5053203;28;20039;-80
2023/10/17 14:41:18;;;;;;;8.40;6.22;;;8.60;94.20;;;;;;5051917;28;20027;-76
2023/10/17 14:43:46;;;;;;;8.43;6.47;;;8.70;93.70;;;;;;5044656;28;20099;-81
2023/10/17 14:46:13;;;;;;;10.10;6.90;;;8.70;92.80;;;;;;5053897;28;20093;-76
2023/10/17 14:48:40;;;;;;;12.20;6.43;;;8.70;93.20;;;;;;5056344;28;20067;-76
2023/10/17 14:51:06;;;;;;;21.48;11.57;;;8.70;93.50;;;;;;5055541;28;20422;-77
2023/10/17 14:53:33;;;;;;;145.95;77.25;;;8.70;93.30;;;;;;5054782;28;20027;-77
2023/10/17 14:55:59;;;;;;;154.52;88.00;;;8.80;93.10;;;;;;5055394;28;20123;-81
2023/10/17 14:58:25;;;;;;;125.95;78.95;;;8.80;95.00;;;;;;5055156;28;20108;-76
2023/10/17 15:00:54;;;;;;;59.95;38.42;;;8.70;97.60;;;;;;5052162;28;20028;-81